Terminal Aerodrome Forecast
Issued by NWS

Home | Current Version | Previous Version | Text Only | Print | Product List | Glossary On
Versions: 1 2 3 4 5 6 7 8 9 10 11 12 13 14 15 16
000
FTAK31 PANC 202216 AAA
TAFACD
TAF AMD
PACD 202216Z 2022/2118 14018G28KT 4SM -RA BR SCT009 BKN015
      TEMPO 2022/2101 2SM -RA BR
     FM210400 15018G26KT 6SM -RA BR OVC025
     FM210900 17011KT P6SM VCSH OVC015=

USA.gov is the U.S. government's official web portal to all federal, state and local government web resources and services.